Latest Weather Observations for Spring Bay

IDT60801

Issued at 5:35 pm EST Thursday 31 July 2014 (issued every 30 minutes, with the page automatically refreshed every 10 minutes)

About weather observations | Map of weather stations | Latest weather observations for TAS | Other Formats
Station Details ID: 092133 Name: SPRING BAY NTC AWS Lat: -42.55 Lon: 147.93 Height: 0.0 m
Data from the previous 72 hours. | See also: Recent months for locations in Tasmania
Date/Time
EST
Temp
°C
App
Temp
°C
Dew
Point
Rel
Hum
%
Delta-T
°C
Wind Press
QNH
hPa
Press
MSL
hPa
Rain
since 9 am
mm
Dir
 
Spd
km/h
Gust
km/h
Spd
kts
Gust
kts
31/05:30pm 10.1 - - - - NW 48 59 26 32 981.6 - -
31/05:10pm 9.8 - - - - NW 28 43 15 23 981.5 - -
31/05:00pm 9.3 - - - - NW 17 24 9 13 981.6 981.6 -
31/04:30pm 9.4 - - - - W 20 32 11 17 982.7 - -
31/04:00pm 8.4 - - - - W 9 13 5 7 982.7 982.7 -
31/03:30pm 8.5 - - - - SW 13 19 7 10 981.8 - -
31/03:00pm 8.6 - - - - SW 13 22 7 12 980.6 980.6 -
31/02:30pm 8.7 - - - - WSW 17 26 9 14 982.2 - -
31/02:02pm 8.7 - - - - S 30 48 16 26 981.4 - -
31/02:00pm 8.9 - - - - S 33 48 18 26 981.3 981.3 -
31/01:58pm 9.2 - - - - SSW 54 63 29 34 981.1 - -
31/01:55pm 8.7 - - - - WSW 39 48 21 26 981.0 - -
31/01:30pm 9.2 - - - - S 20 30 11 16 979.7 - -
31/01:00pm 8.6 - - - - SE 22 33 12 18 980.2 980.2 -
31/12:30pm 8.7 - - - - SSE 17 22 9 12 981.8 - -
31/12:00pm 8.5 - - - - SSE 17 22 9 12 983.3 983.3 -
31/11:30am 8.6 - - - - SSE 30 35 16 19 984.3 - -
31/11:00am 8.6 - - - - SSE 15 17 8 9 984.8 984.8 -
31/10:30am 8.8 - - - - E 4 6 2 3 985.1 - -
31/10:00am 8.6 - - - - N 4 7 2 4 986.2 986.2 -
31/09:30am 8.1 - - - - N 4 6 2 3 987.1 - -
31/09:00am 8.3 - - - - CALM 0 4 0 2 987.9 987.9 -
31/08:30am 8.2 - - - - N 4 7 2 4 988.1 - -
31/08:00am 8.3 - - - - WNW 7 13 4 7 988.7 988.7 -
31/07:30am 8.9 - - - - W 6 11 3 6 989.6 - -
31/07:00am 9.6 - - - - SSE 22 28 12 15 989.6 989.6 -
31/06:30am 9.7 - - - - SE 20 26 11 14 989.3 - -
31/06:00am 12.0 - - - - SSW 20 32 11 17 988.9 988.9 -
31/05:30am 13.7 - - - - NW 35 44 19 24 988.5 - -
31/05:19am 13.9 - - - - NW 35 54 19 29 988.2 - -
31/05:00am 13.5 - - - - NW 33 43 18 23 988.4 988.4 -
31/04:30am 13.6 - - - - NW 35 46 19 25 988.4 - -
31/04:00am 13.7 - - - - NW 30 39 16 21 988.4 988.4 -
31/03:30am 13.7 - - - - NW 37 44 20 24 988.8 - -
31/03:00am 14.0 - - - - NW 43 56 23 30 988.8 988.8 -
31/02:58am 13.9 - - - - NW 44 65 24 35 988.9 - -
31/02:30am 14.0 - - - - NW 48 63 26 34 989.1 - -
31/02:00am 14.0 - - - - NW 50 78 27 42 989.4 989.4 -
31/01:30am 13.3 - - - - NW 48 70 26 38 989.2 - -
31/01:24am 13.4 - - - - NW 50 70 27 38 989.2 - -
31/01:00am 13.5 - - - - NW 56 70 30 38 989.5 989.5 -
31/12:30am 13.6 - - - - NW 57 78 31 42 989.9 - -
31/12:01am 13.5 - - - - NW 56 74 30 40 990.4 - -
31/12:00am 13.3 - - - - NW 54 67 29 36 990.3 990.3 -
 
Date/Time
EST
Temp
°C
App
Temp
°C
Dew
Point
Rel
Hum
%
Delta-T
°C
Wind Press
QNH
hPa
Press
MSL
hPa
Rain
since 9 am
mm
Dir
 
Spd
km/h
Gust
km/h
Spd
kts
Gust
kts
30/11:31pm 13.5 - - - - NW 56 76 30 41 990.4 - -
30/11:30pm 13.6 - - - - NW 56 69 30 37 990.4 - -
30/11:09pm 14.0 - - - - WNW 54 74 29 40 990.8 - -
30/11:00pm 13.8 - - - - WNW 50 65 27 35 991.1 991.1 -
30/10:41pm 13.8 - - - - WNW 46 65 25 35 991.2 - -
30/10:30pm 13.9 - - - - WNW 43 57 23 31 991.3 - -
30/10:00pm 13.9 - - - - WNW 52 70 28 38 991.2 991.2 -
30/09:30pm 14.1 - - - - NW 56 78 30 42 991.5 - -
30/09:00pm 14.2 - - - - WNW 56 85 30 46 991.9 991.9 -
30/08:30pm 13.9 - - - - WNW 56 83 30 45 992.1 - -
30/08:05pm 13.7 - - - - WNW 46 67 25 36 992.2 - -
30/08:00pm 13.5 - - - - WNW 44 57 24 31 992.2 992.2 -
30/07:30pm 14.2 - - - - WNW 39 61 21 33 993.0 - -
30/07:00pm 14.3 - - - - WNW 41 63 22 34 993.6 993.6 -
30/06:38pm 14.6 - - - - WNW 39 57 21 31 993.3 - -
30/06:30pm 14.7 - - - - W 43 56 23 30 993.5 - -
30/06:06pm 14.4 - - - - WNW 37 57 20 31 993.5 - -
30/06:00pm 14.3 - - - - WNW 43 57 23 31 993.6 993.6 -
30/05:50pm 14.0 - - - - WNW 33 52 18 28 993.5 - -
30/05:30pm 13.9 - - - - WNW 41 54 22 29 993.3 - -
30/05:00pm 13.9 - - - - WNW 39 52 21 28 993.5 993.5 -
30/04:30pm 13.7 - - - - WNW 41 59 22 32 993.5 - -
30/04:01pm 14.4 - - - - WNW 44 65 24 35 993.1 - -
30/04:00pm 14.4 - - - - WNW 44 56 24 30 993.1 993.1 -
30/03:30pm 14.3 - - - - WNW 43 56 23 30 992.9 - -
30/03:00pm 14.3 - - - - WNW 33 43 18 23 993.4 993.4 -
30/02:30pm 14.9 - - - - WNW 43 63 23 34 993.5 - -
30/02:00pm 14.8 - - - - W 48 72 26 39 993.6 993.6 -
30/01:30pm 15.0 - - - - W 39 59 21 32 993.7 - -
30/01:00pm 14.6 - - - - WNW 44 69 24 37 993.7 993.7 -
30/12:30pm 14.0 - - - - WNW 56 74 30 40 994.5 - -
30/12:17pm 14.1 - - - - WNW 54 74 29 40 994.6 - -
30/12:08pm 14.0 - - - - WNW 63 72 34 39 994.7 - -
30/12:00pm 14.7 - - - - WNW 43 70 23 38 994.8 994.8 -
30/11:30am 14.3 - - - - WNW 37 57 20 31 995.4 - -
30/11:00am 13.4 - - - - WNW 39 70 21 38 995.8 995.8 -
30/10:30am 13.2 - - - - WNW 44 65 24 35 996.3 - -
30/10:14am 12.7 - - - - WNW 39 59 21 32 996.4 - -
30/10:00am 12.5 - - - - WNW 35 52 19 28 996.3 996.3 -
30/09:30am 12.1 - - - - WNW 30 50 16 27 996.6 - -
30/09:28am 11.9 - - - - WNW 30 50 16 27 996.6 - -
30/09:00am 11.5 - - - - WNW 33 46 18 25 996.7 996.7 -
30/08:30am 11.4 - - - - WNW 33 43 18 23 997.0 - -
30/08:06am 11.1 - - - - NW 30 52 16 28 997.1 - -
30/08:00am 11.1 - - - - NW 22 33 12 18 997.1 997.1 -
30/07:30am 11.1 - - - - NNW 17 26 9 14 996.8 - -
30/07:00am 11.6 - - - - WNW 24 33 13 18 996.5 996.5 -
30/06:30am 11.3 - - - - W 24 37 13 20 997.3 - -
30/06:10am 11.4 - - - - W 32 52 17 28 997.1 - -
30/06:00am 11.4 - - - - W 37 52 20 28 997.0 997.0 -
30/05:31am 10.9 - - - - W 35 54 19 29 997.0 - -
30/05:30am 10.9 - - - - W 37 54 20 29 997.0 - -
30/05:00am 10.8 - - - - W 43 74 23 40 996.8 996.8 -
30/04:35am 11.0 - - - - W 48 70 26 38 996.9 - -
30/04:30am 11.1 - - - - W 43 59 23 32 996.7 - -
30/04:02am 11.1 - - - - W 41 61 22 33 996.1 - -
30/04:00am 11.2 - - - - W 43 61 23 33 996.2 996.2 -
30/03:39am 11.0 - - - - W 37 56 20 30 995.3 - -
30/03:30am 10.8 - - - - W 37 54 20 29 995.2 - -
30/03:00am 10.3 - - - - W 39 59 21 32 994.7 994.7 -
30/02:30am 10.4 - - - - W 37 59 20 32 994.2 - -
30/02:08am 10.1 - - - - W 28 46 15 25 993.6 - -
30/02:00am 10.1 - - - - W 32 44 17 24 993.4 993.4 -
30/01:38am 9.7 - - - - W 33 46 18 25 993.7 - -
30/01:30am 9.9 - - - - W 56 82 30 44 993.7 - -
30/01:06am 10.7 - - - - WSW 67 102 36 55 993.0 - -
30/01:05am 10.4 - - - - W 30 89 16 48 993.0 - -
30/01:00am 10.1 - - - - W 28 41 15 22 993.1 993.1 -
30/12:38am 9.7 - - - - W 35 56 19 30 992.3 - -
30/12:30am 9.5 - - - - W 43 56 23 30 992.5 - -
30/12:03am 10.6 - - - - WSW 39 65 21 35 991.5 - -
30/12:00am 10.7 - - - - WNW 24 48 13 26 991.5 991.5 -
 
Date/Time
EST
Temp
°C
App
Temp
°C
Dew
Point
Rel
Hum
%
Delta-T
°C
Wind Press
QNH
hPa
Press
MSL
hPa
Rain
since 9 am
mm
Dir
 
Spd
km/h
Gust
km/h
Spd
kts
Gust
kts
29/11:32pm 10.3 - - - - WNW 33 54 18 29 991.0 - -
29/11:30pm 10.2 - - - - WNW 32 43 17 23 991.1 - -
29/11:00pm 9.7 - - - - W 35 56 19 30 991.2 991.2 -
29/10:57pm 9.5 - - - - W 37 56 20 30 991.3 - -
29/10:54pm 9.6 - - - - W 37 52 20 28 991.5 - -
29/10:43pm 10.4 - - - - SW 39 61 21 33 992.0 - -
29/10:42pm 10.5 - - - - SW 37 56 20 30 991.7 - -
29/10:38pm 10.7 - - - - W 54 72 29 39 991.4 - -
29/10:36pm 10.8 - - - - W 59 72 32 39 991.4 - -
29/10:35pm 10.6 - - - - WNW 33 72 18 39 991.3 - -
29/10:33pm 10.4 - - - - WNW 30 50 16 27 991.1 - -
29/10:30pm 10.5 - - - - WNW 32 50 17 27 990.8 - -
29/10:00pm 10.3 - - - - WNW 52 74 28 40 990.7 990.7 -
29/09:54pm 10.5 - - - - WNW 50 74 27 40 990.9 - -
29/09:53pm 10.5 - - - - WNW 48 63 26 34 990.6 - -
29/09:38pm 12.8 - - - - WNW 82 104 44 56 990.2 - -
29/09:37pm 13.0 - - - - WNW 57 104 31 56 990.1 - -
29/09:30pm 13.3 - - - - W 46 74 25 40 989.3 - -
29/09:00pm 13.9 - - - - W 50 70 27 38 989.1 989.1 -
29/08:54pm 13.9 - - - - W 48 61 26 33 989.0 - -
29/08:47pm 14.1 - - - - W 70 93 38 50 988.7 - -
29/08:46pm 14.1 - - - - W 76 93 41 50 988.9 - -
29/08:36pm 13.8 - - - - W 48 87 26 47 988.1 - -
29/08:30pm 13.5 - - - - W 48 67 26 36 987.8 - -
29/08:00pm 13.1 - - - - W 43 63 23 34 987.8 987.8 -
29/07:30pm 12.1 - - - - WNW 37 69 20 37 987.7 - -
29/07:15pm 11.2 - - - - W 41 65 22 35 987.6 - -
29/07:14pm 10.9 - - - - W 39 57 21 31 987.8 - -
29/07:09pm 11.0 - - - - WSW 57 80 31 43 989.0 - -
29/07:07pm 12.0 - - - - WSW 33 57 18 31 988.8 - -
29/07:03pm 12.7 - - - - WNW 61 83 33 45 988.4 - -
29/07:02pm 13.1 - - - - WNW 33 83 18 45 988.4 - -
29/07:00pm 13.4 - - - - WNW 32 48 17 26 988.0 988.0 -
29/06:30pm 13.9 - - - - WNW 43 65 23 35 986.6 - -
29/06:00pm 14.3 - - - - WNW 54 80 29 43 986.3 986.3 -
29/05:43pm 14.1 - - - - WNW 57 98 31 53 986.4 - -
29/05:42pm 14.0 - - - - WNW 52 70 28 38 986.4 - -
29/05:41pm 13.6 - - - - WNW 50 63 27 34 986.4 - -
29/05:35pm 13.6 - - - - NW 72 95 39 51 985.1 - -
29/05:32pm 13.3 - - - - NW 46 70 25 38 985.7 - -
29/05:30pm 13.4 - - - - NW 44 61 24 33 985.4 - -
29/05:28pm 13.4 - - - - NW 43 61 23 33 985.4 - -
29/05:00pm 13.3 - - - - NW 44 63 24 34 985.7 985.7 -
29/04:46pm 13.5 - - - - NW 46 67 25 36 986.2 - -
29/04:30pm 13.6 - - - - NNW 48 61 26 33 986.1 - -
29/04:00pm 13.3 - - - - NW 39 50 21 27 986.8 986.8 -
29/03:30pm 13.4 - - - - NW 35 46 19 25 987.1 - -
29/03:00pm 13.7 - - - - NW 41 52 22 28 988.0 988.0 -
29/02:30pm 13.6 - - - - WNW 32 46 17 25 988.2 - -
29/02:00pm 13.0 - - - - WNW 28 43 15 23 988.6 988.6 -
29/01:34pm 12.2 - - - - WNW 33 52 18 28 989.2 - -
29/01:30pm 12.3 - - - - WNW 32 44 17 24 989.3 - -
29/01:10pm 12.1 - - - - WNW 39 57 21 31 990.4 - -
29/01:00pm 12.2 - - - - W 46 61 25 33 990.6 990.6 -
29/12:30pm 13.3 - - - - WNW 52 76 28 41 990.6 - -
29/12:26pm 13.2 - - - - WNW 44 72 24 39 990.5 - -
29/12:11pm 13.9 - - - - W 32 50 17 27 990.2 - -
29/12:00pm 13.5 - - - - W 26 39 14 21 990.0 990.0 -
29/11:30am 13.1 - - - - WNW 32 43 17 23 990.7 - -
29/11:02am 14.5 - - - - WNW 39 57 21 31 990.7 - -
29/11:00am 14.6 - - - - WNW 37 52 20 28 990.7 990.7 -
29/10:30am 14.5 - - - - WNW 44 72 24 39 990.3 - -
29/10:04am 14.4 - - - - WNW 43 63 23 34 990.6 - -
29/10:00am 14.1 - - - - WNW 43 57 23 31 990.5 990.5 -
29/09:48am 14.1 - - - - WNW 50 69 27 37 990.7 - -
29/09:30am 13.6 - - - - NW 52 69 28 37 990.4 - -
29/09:03am 13.0 - - - - NW 50 70 27 38 990.7 - -
29/09:00am 12.9 - - - - NW 44 52 24 28 990.6 990.6 -
29/08:59am 12.9 - - - - NW 44 52 24 28 990.7 - -
29/08:35am 13.1 - - - - NW 67 85 36 46 991.0 - -
29/08:30am 13.4 - - - - WNW 70 85 38 46 991.1 - -
29/08:00am 13.9 - - - - WNW 69 89 37 48 991.2 991.2 -
29/07:30am 13.4 - - - - WNW 63 96 34 52 991.0 - -
29/07:25am 13.4 - - - - WNW 59 82 32 44 990.6 - -
29/07:23am 13.4 - - - - WNW 54 63 29 34 990.6 - -
29/07:00am 13.3 - - - - NW 76 104 41 56 991.4 991.4 -
29/06:30am 13.5 - - - - WNW 63 95 34 51 991.9 - -
29/06:00am 13.8 - - - - WNW 54 87 29 47 992.1 992.1 -
29/05:30am 13.4 - - - - WNW 50 82 27 44 993.0 - -
29/05:00am 13.4 - - - - NW 48 72 26 39 994.5 994.5 -
29/04:43am 13.0 - - - - WNW 52 70 28 38 994.5 - -
29/04:38am 13.1 - - - - WNW 59 70 32 38 994.5 - -
29/04:31am 12.9 - - - - NW 35 59 19 32 994.8 - -
29/04:30am 12.9 - - - - NW 33 50 18 27 994.7 - -
29/04:00am 12.8 - - - - WNW 43 65 23 35 995.6 995.6 -
29/03:51am 12.8 - - - - NW 28 57 15 31 995.9 - -

Other Formats:

Comma delimited format used in spreadsheet applications
http://www.bom.gov.au/fwo/IDT60801/IDT60801.95987.axf

JavaScript Object Notation format (JSON) in row-major order
http://www.bom.gov.au/fwo/IDT60801/IDT60801.95987.json